LEJRGEML

Guest
Details From LEJR - Jerez
To GEML - Melilla
Flight Number -
Tags Routegen
Created
Modified
Stats Distance 185 nm / 343 km
Max Altitude 0 ft / 0 m
Waypoints 4
Social Downloads 9
Likes 0
Share

Download

Looking for another format? Having issues loading an existing format? Contact us
Advertisement - Login to hide

Notes

None

Route

LEJR +36.60_-006.13 +35.65_-003.26 GEML

ID Type Via Altitude (ft/m) Position (lat/lon) Dist (leg/tot) Name
O LEJR APT - 0 / 0 36.73497 / -6.06481 - / 0 nm
+36.60_-006.13 DME - 0 / 0 36.60014 / -6.13041 8 / 8 nm
+35.65_-003.26 DME - 0 / 0 35.64712 / -3.25692 150 / 159 nm
O GEML APT - 0 / 0 35.28586 / -2.96118 26 / 185 nm

Altitude Profile

Advertisement - Login to hide

Weather


0- 5 10 15 20 25 30 35+ Temperature / °C

Clouds and Precipitation
Forecast for 2021-06-15 18:00 UTC. Updated 7 minutes ago

Ground ~20,000 ft ~40,000 ft Winds

LEJR

Details ICAO LEJR (XRY)
Name Jerez La Parra
Region Spain
Timezone Europe/Madrid (UTC+2.0)
Stats Elevation 93 ft / 28 m (AMSL)
Location 36.744600° -6.060110°
Runways 1
Magnetic Variation 0.933° W

METAR

LEJR 151530Z 23008KT 180V270 CAVOK 26/17 Q1014

Decode

TAF

TAF LEJR 151400Z 1515/1615 23009KT CAVOK TX28/1515Z TN17/1605Z TEMPO 1523/1609 BKN010

Decode

Departure Runways

ID Width Length Bearing (true/mag) Surface Threshold Overrun Markings Lighting
02 148 ft / 45 m 7,567 ft / 2,306 m 21.36° / 22.29° ASPHALT 0 ft / 0 m 197 ft / 60 m PREC-APP CENTERLINE EDGE THRESHOLD SALS REIL-OMNI
20 148 ft / 45 m 7,567 ft / 2,306 m 201.36° / 202.30° ASPHALT 0 ft / 0 m 197 ft / 60 m PREC-APP CENTERLINE EDGE THRESHOLD CALVERT-ILS REIL-OMNI

GEML

Details ICAO GEML (MLN)
Name Melilla
Region Ceuta and Melilla
Timezone Africa/Casablanca (UTC+1.0)
Stats Elevation 156 ft / 48 m (AMSL)
Location 35.280500° -2.956780°
Runways 1
Magnetic Variation 0.076° W

METAR

GEML 151530Z 34003KT 9999 FEW015 27/13 Q1014

Decode

TAF

TAF TAF GEML 151100Z 1512/1612 04005KT 9999 SCT015 TX28/1513Z TN20/1605Z BECMG 1605/1608 28010KT

Decode

Destination Runways

ID Width Length Bearing (true/mag) Surface Threshold Overrun Markings Lighting
15 149 ft / 45 m 4,886 ft / 1,489 m 146.47° / 146.54° ASPHALT 958 ft / 292 m 0 ft / 0 m PREC-APP EDGE THRESHOLD RAIL REIL-OMNI
33 149 ft / 45 m 4,886 ft / 1,489 m 326.47° / 326.55° ASPHALT 0 ft / 0 m 315 ft / 96 m PREC-APP EDGE THRESHOLD REIL-OMNI

Popular Alternatives